Time;durP1;ratioP1;P1;durP2;ratioP2;P2;SDS_P1;SDS_P2;PMS_P1;PMS_P2;Temp;Humidity;BMP_temperature;BMP_pressure;BME280_temperature;BME280_humidity;BME280_pressure;Samples;Min_cycle;Max_cycle;Signal;HPM_P1;HPM_P2
2021/06/02 00:00:43;;;;;;;1.27;1.10;;;12.40;98.00;;;;;;5088620;28;20544;-72
2021/06/02 00:03:13;;;;;;;1.30;1.10;;;12.40;98.00;;;;;;5091646;28;20456;-72
2021/06/02 00:05:42;;;;;;;2.20;1.50;;;12.30;98.00;;;;;;5089396;28;20489;-73
2021/06/02 00:08:09;;;;;;;2.53;1.50;;;12.30;98.00;;;;;;5091646;28;20960;-73
2021/06/02 00:10:36;;;;;;;1.93;1.50;;;12.10;98.00;;;;;;5089023;28;20458;-73
2021/06/02 00:13:03;;;;;;;1.30;1.20;;;12.20;98.00;;;;;;5091464;28;20465;-73
2021/06/02 00:15:31;;;;;;;1.90;1.53;;;12.20;98.00;;;;;;5088893;28;20496;-73
2021/06/02 00:18:00;;;;;;;1.20;1.00;;;12.10;98.00;;;;;;5091367;28;20462;-72
2021/06/02 00:20:27;;;;;;;1.60;1.43;;;12.00;98.00;;;;;;5088356;28;21116;-73
2021/06/02 00:22:54;;;;;;;1.50;1.20;;;11.90;98.00;;;;;;5091374;28;20511;-73
2021/06/02 00:25:22;;;;;;;1.63;1.40;;;11.80;98.00;;;;;;5088984;28;20454;-73
2021/06/02 00:27:48;;;;;;;1.50;1.10;;;11.80;98.00;;;;;;5091340;28;20489;-72
2021/06/02 00:30:18;;;;;;;1.20;1.00;;;11.90;98.00;;;;;;5088641;28;20469;-72
2021/06/02 00:32:46;;;;;;;2.47;1.37;;;11.90;98.00;;;;;;5091485;28;20493;-72
2021/06/02 00:35:16;;;;;;;1.80;1.23;;;11.80;98.00;;;;;;5088990;28;20934;-73
2021/06/02 00:37:43;;;;;;;1.30;1.00;;;11.60;98.00;;;;;;5091172;28;20493;-73
2021/06/02 00:40:31;;;;;;;1.50;1.20;;;11.70;98.00;;;;;;5088839;28;20467;-72
2021/06/02 00:42:57;;;;;;;1.30;1.10;;;11.60;98.00;;;;;;5091446;28;20460;-72
2021/06/02 00:45:28;;;;;;;1.20;1.00;;;11.70;98.00;;;;;;5088583;28;20479;-73
2021/06/02 00:47:56;;;;;;;1.50;1.20;;;11.80;98.00;;;;;;5091339;28;20497;-73
2021/06/02 00:50:23;;;;;;;1.70;1.10;;;11.90;98.00;;;;;;5088852;28;20784;-73
2021/06/02 00:52:50;;;;;;;1.20;1.00;;;11.80;98.00;;;;;;5091204;28;20545;-73
2021/06/02 00:55:18;;;;;;;1.30;1.27;;;11.80;98.00;;;;;;5088253;28;20949;-72
2021/06/02 00:57:49;;;;;;;1.63;1.33;;;11.90;98.00;;;;;;5089899;28;20458;-72
2021/06/02 01:00:17;;;;;;;1.20;1.10;;;11.70;98.00;;;;;;5088512;28;20454;-73
2021/06/02 01:02:48;;;;;;;1.20;1.00;;;11.40;98.00;;;;;;5091054;28;20489;-73
2021/06/02 01:05:17;;;;;;;1.20;1.00;;;11.50;98.00;;;;;;5088035;28;20488;-73
2021/06/02 01:07:45;;;;;;;1.30;1.20;;;11.50;98.00;;;;;;5091348;28;20513;-72
2021/06/02 01:10:13;;;;;;;1.30;1.10;;;11.30;98.00;;;;;;5088610;28;20492;-72
2021/06/02 01:12:41;;;;;;;1.20;1.00;;;11.10;98.00;;;;;;5090979;28;20957;-73
2021/06/02 01:15:09;;;;;;;1.73;1.27;;;10.90;98.00;;;;;;5088758;28;20464;-73
2021/06/02 01:17:36;;;;;;;1.20;1.00;;;11.00;98.00;;;;;;5090959;28;20542;-73
2021/06/02 01:20:07;;;;;;;1.20;1.10;;;11.00;98.00;;;;;;5088373;28;20522;-72
2021/06/02 01:22:36;;;;;;;1.40;1.00;;;11.00;98.00;;;;;;5089878;28;20511;-73
2021/06/02 01:25:11;;;;;;;2.27;1.30;;;10.90;98.00;;;;;;5088370;28;20449;-73
2021/06/02 01:27:39;;;;;;;1.83;1.17;;;10.90;98.00;;;;;;5090726;28;20466;-72
2021/06/02 01:30:08;;;;;;;1.20;1.00;;;10.80;98.00;;;;;;5092061;28;20488;-73
2021/06/02 01:32:57;;;;;;;1.60;1.10;;;10.70;98.00;;;;;;5094548;28;20458;-72
2021/06/02 01:35:45;;;;;;;1.67;1.37;;;10.80;98.00;;;;;;5092310;28;20498;-73
2021/06/02 01:38:41;;;;;;;1.20;1.10;;;10.70;98.00;;;;;;5093956;28;20964;-73
2021/06/02 01:41:26;;;;;;;1.30;1.07;;;10.90;98.00;;;;;;5091533;28;21097;-73
2021/06/02 01:44:27;;;;;;;1.20;1.00;;;10.90;98.00;;;;;;5093464;28;20460;-73
2021/06/02 01:47:28;;;;;;;1.40;1.20;;;10.80;98.00;;;;;;5075773;28;20451;-72
2021/06/02 01:50:39;;;;;;;1.20;0.97;;;10.70;98.00;;;;;;5091111;28;20462;-72
2021/06/02 01:53:39;;;;;;;1.30;1.10;;;10.50;98.00;;;;;;5068972;28;20507;-73
2021/06/02 01:56:42;;;;;;;1.50;1.20;;;10.60;98.00;;;;;;5091466;28;20501;-73
2021/06/02 01:59:40;;;;;;;1.20;1.00;;;10.60;98.00;;;;;;5093788;28;20957;-73
2021/06/02 02:02:49;;;;;;;1.20;1.07;;;10.70;98.00;;;;;;5093832;28;20482;-74
2021/06/02 02:05:28;;;;;;;1.20;0.97;;;10.50;98.00;;;;;;5091481;28;20450;-72
2021/06/02 02:08:41;;;;;;;2.67;1.37;;;10.50;98.00;;;;;;5094019;28;20459;-73
2021/06/02 02:11:20;;;;;;;2.00;1.40;;;10.30;98.00;;;;;;5091248;28;20448;-73
2021/06/02 02:14:03;;;;;;;1.47;1.17;;;10.20;98.00;;;;;;5093818;28;20460;-73
2021/06/02 02:16:43;;;;;;;1.60;1.10;;;10.10;98.00;;;;;;5091216;28;20488;-73
2021/06/02 02:19:24;;;;;;;1.30;1.30;;;10.00;98.00;;;;;;5093802;28;20938;-73
2021/06/02 02:21:57;;;;;;;1.50;1.17;;;10.00;98.00;;;;;;5090821;28;20843;-72
2021/06/02 02:24:33;;;;;;;1.20;1.00;;;10.10;98.00;;;;;;5093580;28;20465;-73
2021/06/02 02:27:13;;;;;;;1.20;1.00;;;10.30;98.00;;;;;;5093413;28;20511;-72
2021/06/02 02:29:53;;;;;;;1.20;1.00;;;10.20;98.00;;;;;;5090968;28;21027;-73
2021/06/02 02:32:46;;;;;;;1.20;1.03;;;10.00;98.00;;;;;;5093418;28;20473;-73
2021/06/02 02:35:28;;;;;;;1.20;1.03;;;9.90;98.00;;;;;;5090677;28;20457;-72
2021/06/02 02:38:04;;;;;;;1.70;1.10;;;10.00;98.00;;;;;;5093415;28;20595;-72
2021/06/02 02:40:47;;;;;;;1.30;1.20;;;9.90;98.00;;;;;;5090812;28;20459;-73
2021/06/02 02:43:24;;;;;;;1.70;1.50;;;9.90;98.00;;;;;;5093193;28;20462;-72
2021/06/02 02:46:03;;;;;;;1.20;0.97;;;9.80;98.00;;;;;;5090248;28;20464;-72
2021/06/02 02:48:37;;;;;;;1.30;1.10;;;9.70;98.00;;;;;;5092925;28;20464;-72
2021/06/02 02:51:20;;;;;;;1.23;1.10;;;9.70;98.00;;;;;;5090733;28;20800;-72
2021/06/02 02:53:57;;;;;;;1.70;1.43;;;9.90;98.00;;;;;;5092881;28;20484;-72
2021/06/02 02:56:31;;;;;;;2.23;1.47;;;10.00;98.00;;;;;;5089998;28;20457;-72
2021/06/02 02:59:06;;;;;;;1.87;1.40;;;10.10;98.00;;;;;;5092523;28;20493;-72
2021/06/02 03:01:43;;;;;;;1.20;1.10;;;10.10;98.00;;;;;;5089129;28;20858;-72
2021/06/02 03:04:17;;;;;;;1.20;1.07;;;9.90;98.00;;;;;;5092649;28;20466;-73
2021/06/02 03:06:48;;;;;;;1.23;1.10;;;9.80;98.00;;;;;;5090212;28;20463;-73
2021/06/02 03:09:22;;;;;;;1.87;1.17;;;9.60;98.00;;;;;;5093056;28;20509;-72
2021/06/02 03:11:57;;;;;;;1.20;1.00;;;9.60;98.00;;;;;;5090163;28;20453;-73
2021/06/02 03:14:30;;;;;;;1.27;1.10;;;9.50;98.00;;;;;;5092798;28;20450;-72
2021/06/02 03:17:01;;;;;;;2.37;1.73;;;9.60;98.00;;;;;;5090102;28;20462;-73
2021/06/02 03:19:41;;;;;;;1.20;1.00;;;9.60;98.00;;;;;;5091372;28;20894;-73
2021/06/02 03:22:14;;;;;;;1.20;1.20;;;9.70;98.00;;;;;;5092561;28;20558;-72
2021/06/02 03:24:56;;;;;;;1.20;1.13;;;9.60;98.00;;;;;;5089966;28;20947;-73
2021/06/02 03:27:28;;;;;;;1.20;1.00;;;9.50;98.00;;;;;;5092423;28;20491;-73
2021/06/02 03:30:06;;;;;;;1.30;1.10;;;9.50;98.00;;;;;;5089387;28;20456;-73
2021/06/02 03:32:51;;;;;;;1.30;1.20;;;9.70;98.00;;;;;;5092355;28;20946;-73
2021/06/02 03:35:24;;;;;;;1.40;1.20;;;9.70;98.00;;;;;;5089791;28;20494;-72
2021/06/02 03:38:03;;;;;;;1.50;1.40;;;9.70;98.00;;;;;;5092236;28;20485;-73
2021/06/02 03:41:00;;;;;;;1.20;1.03;;;9.70;98.00;;;;;;5089133;28;20855;-72
2021/06/02 03:43:32;;;;;;;1.20;1.00;;;9.60;98.00;;;;;;5091861;28;20536;-72
2021/06/02 03:46:16;;;;;;;1.20;0.90;;;9.50;98.00;;;;;;5089770;28;20519;-72
2021/06/02 03:48:54;;;;;;;1.50;1.20;;;9.30;98.00;;;;;;5092030;28;20482;-73
2021/06/02 03:51:37;;;;;;;1.20;1.10;;;9.20;98.00;;;;;;5088960;28;20481;-72
2021/06/02 03:54:11;;;;;;;1.50;1.43;;;9.20;98.00;;;;;;5092095;28;20497;-73
2021/06/02 03:57:02;;;;;;;1.20;1.10;;;9.30;98.00;;;;;;5089705;28;20797;-72
2021/06/02 03:59:38;;;;;;;1.40;1.20;;;9.30;98.00;;;;;;5092062;28;20491;-72
2021/06/02 04:02:11;;;;;;;1.60;1.20;;;9.30;98.00;;;;;;5089658;28;20506;-72
2021/06/02 04:04:48;;;;;;;1.20;1.10;;;9.30;98.00;;;;;;5091911;28;20878;-72
2021/06/02 04:07:25;;;;;;;1.30;1.27;;;9.30;98.00;;;;;;5091970;28;20452;-72
2021/06/02 04:10:00;;;;;;;1.20;1.10;;;9.40;98.00;;;;;;5088645;28;20511;-73
2021/06/02 04:12:35;;;;;;;1.37;1.07;;;9.50;98.00;;;;;;5090988;28;20525;-72
2021/06/02 04:15:06;;;;;;;1.20;1.10;;;9.70;98.00;;;;;;5088273;28;20495;-72
2021/06/02 04:17:34;;;;;;;1.20;1.00;;;9.60;98.00;;;;;;5090886;28;20495;-73
2021/06/02 04:20:04;;;;;;;1.20;1.00;;;9.50;98.00;;;;;;5088955;28;21198;-72
2021/06/02 04:22:33;;;;;;;1.20;1.10;;;9.40;98.00;;;;;;5091430;28;20484;-72
2021/06/02 04:25:02;;;;;;;2.27;1.30;;;9.20;98.00;;;;;;5089249;28;20491;-72
2021/06/02 04:27:32;;;;;;;1.20;1.00;;;9.20;98.00;;;;;;5091299;28;20452;-72
2021/06/02 04:30:05;;;;;;;1.43;1.10;;;9.20;98.00;;;;;;5089248;28;20509;-72
2021/06/02 04:32:40;;;;;;;1.30;1.27;;;9.30;98.00;;;;;;5091467;28;20863;-72
2021/06/02 04:35:12;;;;;;;1.20;1.00;;;9.40;98.00;;;;;;5088215;28;21061;-73
2021/06/02 04:37:40;;;;;;;1.37;1.10;;;9.50;98.00;;;;;;5090220;28;20506;-72
2021/06/02 04:40:12;;;;;;;1.83;1.53;;;9.50;98.00;;;;;;5088882;28;21146;-73
2021/06/02 04:42:40;;;;;;;1.20;1.10;;;9.50;98.00;;;;;;5089790;28;20794;-72
2021/06/02 04:45:23;;;;;;;1.50;1.30;;;9.50;98.00;;;;;;5088922;28;21144;-72
2021/06/02 04:47:51;;;;;;;1.20;1.13;;;9.60;98.00;;;;;;5090325;28;20456;-73
2021/06/02 04:50:24;;;;;;;1.30;1.10;;;9.70;98.00;;;;;;5089053;28;20866;-72
2021/06/02 04:53:46;;;;;;;1.37;1.17;;;9.90;98.00;;;;;;5091410;28;20452;-73
2021/06/02 04:56:53;;;;;;;1.20;1.10;;;10.00;98.00;;;;;;5088617;28;20487;-73
2021/06/02 04:59:54;;;;;;;1.30;1.13;;;9.80;98.00;;;;;;5080185;28;20477;-72
2021/06/02 05:03:13;;;;;;;1.30;1.10;;;9.90;98.00;;;;;;5091415;28;20509;-73
2021/06/02 05:06:05;;;;;;;1.40;1.20;;;9.90;98.00;;;;;;5092406;28;20459;-73
2021/06/02 05:09:19;;;;;;;1.20;0.93;;;9.90;98.00;;;;;;5094892;28;20459;-73
2021/06/02 05:12:23;;;;;;;1.20;1.00;;;10.00;98.00;;;;;;5091906;28;20484;-72
2021/06/02 05:15:35;;;;;;;1.20;1.00;;;10.10;98.00;;;;;;5093646;28;21205;-72
2021/06/02 05:18:50;;;;;;;1.20;1.10;;;10.50;98.00;;;;;;5075214;28;20551;-73
2021/06/02 05:22:07;;;;;;;1.50;1.30;;;10.80;98.00;;;;;;5049146;28;20888;-72
2021/06/02 05:25:16;;;;;;;1.20;1.00;;;11.10;98.00;;;;;;5083117;28;20454;-73
2021/06/02 05:28:12;;;;;;;2.43;1.70;;;11.30;98.00;;;;;;5094699;28;20552;-73
2021/06/02 05:31:01;;;;;;;1.30;1.10;;;11.20;98.00;;;;;;5091401;28;20479;-72
2021/06/02 05:33:52;;;;;;;1.20;1.00;;;11.40;98.00;;;;;;5094560;28;20449;-72
2021/06/02 05:36:54;;;;;;;1.30;1.00;;;11.60;98.00;;;;;;5092164;28;20455;-72
2021/06/02 05:39:50;;;;;;;1.30;1.10;;;11.80;98.00;;;;;;5094364;28;20461;-73
2021/06/02 05:42:22;;;;;;;1.20;1.10;;;12.10;98.00;;;;;;5092103;28;20515;-71
2021/06/02 05:45:31;;;;;;;1.40;1.23;;;12.20;98.00;;;;;;5094295;28;20463;-71
2021/06/02 05:48:33;;;;;;;1.83;1.33;;;12.20;98.00;;;;;;5094336;28;20459;-71
2021/06/02 05:51:43;;;;;;;1.30;1.10;;;12.20;98.00;;;;;;5089029;28;20468;-71
2021/06/02 05:54:45;;;;;;;2.13;1.37;;;12.20;98.00;;;;;;5094240;28;20489;-71
2021/06/02 05:57:45;;;;;;;1.53;1.23;;;12.30;98.00;;;;;;5090436;28;20471;-71
2021/06/02 06:00:50;;;;;;;1.77;1.10;;;12.50;98.00;;;;;;5091375;28;20459;-71
2021/06/02 06:04:12;;;;;;;1.53;1.20;;;12.80;98.00;;;;;;5072207;28;20529;-73
2021/06/02 06:06:43;;;;;;;1.20;1.10;;;13.00;98.00;;;;;;5066035;28;20484;-73
2021/06/02 06:09:57;;;;;;;2.13;1.00;;;13.20;98.00;;;;;;5093984;28;20462;-73
2021/06/02 06:12:58;;;;;;;4.10;1.50;;;13.30;98.00;;;;;;5093881;28;20460;-72
2021/06/02 06:16:10;;;;;;;1.30;1.10;;;13.50;98.00;;;;;;5091181;28;20458;-72
2021/06/02 06:19:12;;;;;;;1.60;1.30;;;13.70;98.00;;;;;;5089933;28;20977;-73
2021/06/02 06:22:06;;;;;;;2.07;1.53;;;13.70;98.00;;;;;;5091115;28;20511;-73
2021/06/02 06:24:37;;;;;;;1.70;1.20;;;13.90;98.00;;;;;;5093640;28;20823;-72
2021/06/02 06:27:07;;;;;;;1.73;1.27;;;13.90;98.00;;;;;;5089208;28;20987;-72
2021/06/02 06:29:41;;;;;;;1.30;1.20;;;14.00;98.00;;;;;;5093514;28;20452;-72
2021/06/02 06:32:07;;;;;;;1.30;1.10;;;14.10;98.00;;;;;;5090875;28;20469;-72
2021/06/02 06:34:37;;;;;;;1.20;1.10;;;14.20;98.00;;;;;;5093082;28;21032;-71
2021/06/02 06:37:04;;;;;;;1.67;1.37;;;14.30;98.00;;;;;;5090266;28;20488;-72
2021/06/02 06:39:42;;;;;;;1.20;1.03;;;14.40;98.00;;;;;;5093630;28;20459;-72
2021/06/02 06:42:11;;;;;;;1.30;1.20;;;14.60;98.00;;;;;;5090599;28;20501;-72
2021/06/02 06:44:39;;;;;;;1.50;1.20;;;14.70;98.00;;;;;;5093036;28;20839;-71
2021/06/02 06:47:09;;;;;;;1.40;1.27;;;14.90;98.00;;;;;;5090251;28;20460;-70
2021/06/02 06:49:37;;;;;;;1.63;1.53;;;15.10;98.00;;;;;;5093274;28;20455;-69
2021/06/02 06:52:05;;;;;;;1.30;1.13;;;15.20;98.00;;;;;;5089736;28;20492;-70
2021/06/02 06:54:33;;;;;;;1.50;1.40;;;15.30;98.00;;;;;;5091991;28;20788;-70
2021/06/02 06:57:01;;;;;;;1.20;1.00;;;15.50;98.00;;;;;;5090231;28;20992;-71
2021/06/02 06:59:28;;;;;;;1.37;1.20;;;15.60;98.00;;;;;;5093037;28;20493;-70
2021/06/02 07:01:55;;;;;;;1.30;1.13;;;15.70;98.00;;;;;;5089184;28;20563;-70
2021/06/02 07:04:22;;;;;;;1.30;1.20;;;15.80;98.00;;;;;;5092919;28;20463;-71
2021/06/02 07:06:51;;;;;;;1.50;1.20;;;15.90;98.00;;;;;;5090047;28;20455;-70
2021/06/02 07:09:17;;;;;;;1.70;1.20;;;16.10;98.00;;;;;;5092710;28;20923;-70
2021/06/02 07:11:44;;;;;;;1.30;1.10;;;16.20;97.70;;;;;;5089836;28;20475;-70
2021/06/02 07:14:12;;;;;;;1.73;1.30;;;16.30;97.00;;;;;;5091432;28;20534;-71
2021/06/02 07:16:41;;;;;;;1.80;1.50;;;16.50;95.90;;;;;;5089881;28;20448;-71
2021/06/02 07:19:09;;;;;;;1.30;1.10;;;16.60;94.80;;;;;;5092591;28;20809;-70
2021/06/02 07:21:39;;;;;;;1.30;1.30;;;16.80;96.50;;;;;;5089166;28;20830;-70
2021/06/02 07:24:09;;;;;;;2.13;1.40;;;17.00;94.40;;;;;;5090571;28;20488;-71
2021/06/02 07:26:36;;;;;;;2.40;1.80;;;17.10;93.10;;;;;;5088228;28;20448;-70
2021/06/02 07:29:02;;;;;;;2.37;1.17;;;17.20;91.40;;;;;;5091922;28;20448;-72
2021/06/02 07:31:30;;;;;;;1.30;1.17;;;17.30;90.00;;;;;;5089220;28;20447;-71
2021/06/02 07:33:56;;;;;;;1.30;1.10;;;17.40;90.10;;;;;;5091322;28;20533;-70
2021/06/02 07:36:23;;;;;;;1.90;1.23;;;17.60;89.10;;;;;;5089124;28;20498;-71
2021/06/02 07:38:49;;;;;;;1.20;1.20;;;17.80;89.90;;;;;;5092285;28;20522;-72
2021/06/02 07:41:19;;;;;;;1.83;1.30;;;17.90;88.10;;;;;;5088750;28;20470;-71
2021/06/02 07:43:45;;;;;;;1.40;1.30;;;18.20;88.40;;;;;;5092113;28;20984;-71
2021/06/02 07:46:12;;;;;;;1.30;1.10;;;18.30;87.20;;;;;;5089185;28;20456;-70
2021/06/02 07:48:38;;;;;;;1.50;1.30;;;18.60;89.20;;;;;;5092115;28;20467;-70
2021/06/02 07:51:05;;;;;;;1.30;1.10;;;18.80;86.20;;;;;;5089040;28;20979;-70
2021/06/02 07:53:32;;;;;;;1.50;1.20;;;18.90;84.80;;;;;;5091856;28;20608;-70
2021/06/02 07:55:58;;;;;;;1.33;1.23;;;19.10;87.40;;;;;;5089344;28;20477;-71
2021/06/02 07:58:26;;;;;;;1.40;1.20;;;19.30;84.10;;;;;;5091990;28;20460;-71
2021/06/02 08:00:54;;;;;;;1.40;1.20;;;19.60;88.00;;;;;;5087749;28;20959;-70
2021/06/02 08:03:20;;;;;;;1.60;1.40;;;19.70;83.50;;;;;;5090238;28;20554;-71
2021/06/02 08:05:47;;;;;;;1.50;1.43;;;19.90;82.80;;;;;;5088846;28;20992;-71
2021/06/02 08:08:14;;;;;;;1.60;1.00;;;19.90;82.60;;;;;;5091568;28;20458;-71
2021/06/02 08:10:41;;;;;;;1.63;1.20;;;19.90;81.40;;;;;;5089017;28;20825;-71
2021/06/02 08:13:07;;;;;;;1.40;1.27;;;20.00;81.70;;;;;;5091665;28;20818;-71
2021/06/02 08:15:38;;;;;;;1.20;1.00;;;20.10;81.20;;;;;;5088905;28;21007;-72
2021/06/02 08:18:05;;;;;;;1.93;1.30;;;20.20;81.60;;;;;;5090677;28;20471;-73
2021/06/02 08:20:32;;;;;;;1.30;1.13;;;20.40;80.60;;;;;;5089027;28;20464;-70
2021/06/02 08:22:58;;;;;;;2.07;1.50;;;20.50;78.60;;;;;;5091487;28;20541;-72
2021/06/02 08:25:35;;;;;;;2.27;1.30;;;20.60;78.90;;;;;;5088414;28;20955;-72
2021/06/02 08:28:01;;;;;;;1.20;1.00;;;20.70;79.30;;;;;;5091158;28;21010;-71
2021/06/02 08:30:28;;;;;;;1.40;1.23;;;20.80;77.90;;;;;;5088934;28;20537;-70
2021/06/02 08:32:56;;;;;;;1.40;1.30;;;20.90;77.10;;;;;;5091480;28;20867;-71
2021/06/02 08:35:22;;;;;;;1.43;1.40;;;21.10;77.60;;;;;;5089233;28;20484;-71
2021/06/02 08:37:49;;;;;;;1.20;1.10;;;21.30;79.80;;;;;;5094713;28;20596;-73
2021/06/02 08:40:17;;;;;;;1.20;1.17;;;21.40;77.30;;;;;;5093243;28;20483;-71
2021/06/02 08:42:46;;;;;;;1.60;1.10;;;21.50;76.40;;;;;;5094220;28;20479;-71
2021/06/02 08:45:14;;;;;;;1.60;1.30;;;21.50;74.90;;;;;;5092781;28;21082;-72
2021/06/02 08:47:42;;;;;;;2.27;1.53;;;21.70;75.50;;;;;;5095286;28;20451;-73
2021/06/02 08:50:13;;;;;;;1.30;1.10;;;21.90;74.20;;;;;;5094713;28;20948;-72
2021/06/02 08:52:41;;;;;;;2.00;1.40;;;22.10;73.60;;;;;;5095292;28;20483;-72
2021/06/02 08:55:11;;;;;;;1.20;1.03;;;22.30;71.90;;;;;;5095229;28;20541;-69
2021/06/02 08:57:40;;;;;;;1.30;1.17;;;22.40;76.80;;;;;;5095145;28;20551;-69
2021/06/02 09:00:10;;;;;;;2.17;1.70;;;22.60;75.20;;;;;;5095399;28;20447;-70
2021/06/02 09:02:38;;;;;;;1.67;1.10;;;22.80;71.80;;;;;;5092797;28;20802;-71
2021/06/02 09:05:06;;;;;;;1.50;1.27;;;22.90;70.90;;;;;;5094851;28;20466;-72
2021/06/02 09:07:37;;;;;;;1.50;1.33;;;22.90;70.20;;;;;;5092597;28;20456;-72
2021/06/02 09:10:05;;;;;;;1.40;1.40;;;22.90;68.10;;;;;;5094696;28;20487;-73
2021/06/02 09:12:33;;;;;;;1.40;1.20;;;23.00;66.30;;;;;;5092516;28;20501;-72
2021/06/02 09:15:09;;;;;;;1.33;1.17;;;23.10;65.60;;;;;;5094025;28;20446;-72
2021/06/02 09:17:58;;;;;;;1.30;1.17;;;23.10;63.30;;;;;;5092590;28;20491;-71
2021/06/02 09:20:38;;;;;;;1.40;1.30;;;23.30;62.80;;;;;;5087188;28;20464;-71
2021/06/02 09:23:32;;;;;;;1.50;1.30;;;23.40;64.00;;;;;;5094588;28;20479;-71
2021/06/02 09:26:10;;;;;;;1.27;1.17;;;23.40;63.10;;;;;;5091757;28;20949;-71
2021/06/02 09:28:49;;;;;;;1.30;1.17;;;23.50;62.60;;;;;;5093908;28;20470;-71
2021/06/02 09:31:24;;;;;;;1.47;1.30;;;23.50;62.50;;;;;;5057617;28;20512;-72
2021/06/02 09:33:52;;;;;;;1.50;1.10;;;23.60;63.80;;;;;;5092619;28;20455;-72
2021/06/02 09:36:25;;;;;;;1.20;1.10;;;23.70;64.50;;;;;;5091838;28;20455;-72
2021/06/02 09:39:09;;;;;;;1.50;1.30;;;23.80;62.70;;;;;;5093932;28;20484;-71
2021/06/02 09:41:40;;;;;;;1.30;1.20;;;23.90;63.10;;;;;;5091990;28;20456;-71
2021/06/02 09:44:17;;;;;;;1.60;1.20;;;24.00;64.50;;;;;;5093961;28;20486;-71
2021/06/02 09:46:58;;;;;;;1.83;1.63;;;24.00;62.80;;;;;;5091484;28;20540;-71
2021/06/02 09:49:25;;;;;;;1.90;1.40;;;24.10;62.90;;;;;;5091321;28;20960;-73
2021/06/02 09:51:52;;;;;;;1.63;1.30;;;24.10;62.40;;;;;;5090408;28;20985;-72
2021/06/02 09:54:23;;;;;;;1.53;1.20;;;24.10;60.50;;;;;;5093453;28;20554;-71
2021/06/02 09:56:51;;;;;;;1.83;1.30;;;24.30;63.10;;;;;;5091031;28;20950;-71
2021/06/02 09:59:19;;;;;;;1.37;1.33;;;24.40;61.30;;;;;;5093100;28;20492;-72
2021/06/02 10:01:57;;;;;;;1.40;1.37;;;24.60;63.40;;;;;;5091030;28;20529;-70
2021/06/02 10:04:36;;;;;;;2.50;1.73;;;24.80;65.60;;;;;;5091532;28;20804;-70
2021/06/02 10:07:03;;;;;;;1.50;1.40;;;25.00;62.90;;;;;;5090088;28;20524;-70
2021/06/02 10:09:33;;;;;;;1.20;1.13;;;25.10;60.20;;;;;;5092451;28;20893;-73
2021/06/02 10:12:03;;;;;;;1.50;1.30;;;25.00;58.70;;;;;;5090682;28;20865;-72
2021/06/02 10:14:30;;;;;;;2.03;1.60;;;24.90;58.50;;;;;;5092394;28;20463;-73
2021/06/02 10:16:57;;;;;;;2.80;1.47;;;25.00;60.50;;;;;;5090159;28;20460;-72
2021/06/02 10:19:41;;;;;;;1.20;1.10;;;25.10;59.60;;;;;;5092534;28;20489;-72
2021/06/02 10:22:22;;;;;;;1.30;1.13;;;25.10;58.90;;;;;;5090555;28;20480;-73
2021/06/02 10:24:54;;;;;;;1.80;1.30;;;25.20;58.60;;;;;;5092237;28;20460;-72
2021/06/02 10:27:22;;;;;;;1.30;1.20;;;25.30;58.60;;;;;;5089728;28;20474;-72
2021/06/02 10:29:53;;;;;;;1.40;1.13;;;25.50;59.00;;;;;;5092391;28;20945;-72
2021/06/02 10:32:21;;;;;;;1.57;1.40;;;25.60;56.90;;;;;;5090218;28;20852;-72
2021/06/02 10:34:48;;;;;;;1.23;1.10;;;25.70;57.10;;;;;;5092297;28;20459;-72
2021/06/02 10:37:16;;;;;;;3.10;1.50;;;25.70;56.50;;;;;;5089925;28;20478;-73
2021/06/02 10:39:47;;;;;;;2.27;1.50;;;25.90;56.80;;;;;;5092258;28;20479;-72
2021/06/02 10:42:21;;;;;;;1.30;1.20;;;26.10;56.70;;;;;;5090247;28;20491;-72
2021/06/02 10:44:51;;;;;;;3.00;1.93;;;26.30;55.30;;;;;;5091997;28;20466;-72
2021/06/02 10:47:23;;;;;;;1.43;1.40;;;26.40;55.80;;;;;;5090005;28;20448;-71
2021/06/02 10:49:49;;;;;;;1.40;1.33;;;26.60;56.70;;;;;;5092361;28;20815;-72
2021/06/02 10:52:35;;;;;;;1.87;1.37;;;26.50;53.70;;;;;;5090122;28;20456;-72
2021/06/02 10:55:38;;;;;;;2.63;1.60;;;26.40;53.80;;;;;;5090659;28;21183;-73
2021/06/02 10:58:29;;;;;;;1.60;1.30;;;26.50;54.90;;;;;;5087815;28;20888;-72
2021/06/02 11:01:25;;;;;;;1.30;1.20;;;26.60;53.60;;;;;;5088766;28;20463;-71
2021/06/02 11:04:11;;;;;;;1.40;1.40;;;26.70;51.30;;;;;;5028810;28;20490;-71
2021/06/02 11:06:43;;;;;;;1.30;1.30;;;26.80;54.00;;;;;;5079902;28;20460;-73
2021/06/02 11:09:19;;;;;;;1.20;1.10;;;27.10;55.40;;;;;;5091785;28;20838;-72
2021/06/02 11:11:46;;;;;;;1.40;1.20;;;27.30;53.70;;;;;;5089501;28;20455;-72
2021/06/02 11:14:23;;;;;;;2.20;1.80;;;27.60;54.00;;;;;;5099423;28;20455;-73
2021/06/02 11:16:53;;;;;;;1.50;1.30;;;27.50;54.60;;;;;;5109535;28;21024;-74
2021/06/02 11:19:21;;;;;;;1.90;1.70;;;27.60;53.00;;;;;;5111795;28;20507;-72
2021/06/02 11:22:04;;;;;;;1.73;1.30;;;27.70;52.90;;;;;;5109610;28;20508;-74
2021/06/02 11:24:40;;;;;;;1.50;1.40;;;27.80;50.90;;;;;;5109991;28;20937;-71
2021/06/02 11:27:28;;;;;;;1.40;1.27;;;28.10;48.80;;;;;;5109404;28;20459;-73
2021/06/02 11:30:30;;;;;;;1.40;1.30;;;28.40;49.20;;;;;;5111733;28;20447;-73
2021/06/02 11:33:10;;;;;;;1.50;1.40;;;28.60;50.60;;;;;;5111285;28;20956;-75
2021/06/02 11:36:12;;;;;;;1.80;1.20;;;29.00;52.30;;;;;;5107326;28;20473;-72
2021/06/02 11:38:45;;;;;;;1.57;1.40;;;29.00;52.90;;;;;;5111338;28;20203;-70
2021/06/02 11:41:13;;;;;;;1.60;1.50;;;28.80;48.70;;;;;;5109069;28;20505;-71
2021/06/02 11:43:47;;;;;;;1.63;1.30;;;28.60;53.90;;;;;;5111130;28;20474;-73
2021/06/02 11:46:15;;;;;;;1.30;1.20;;;28.50;51.10;;;;;;5109100;28;20466;-75
2021/06/02 11:48:43;;;;;;;1.50;1.30;;;28.50;51.20;;;;;;5111368;28;20901;-73
2021/06/02 11:51:11;;;;;;;1.77;1.30;;;28.60;52.00;;;;;;5109245;28;20490;-73
2021/06/02 11:53:45;;;;;;;1.47;1.47;;;28.60;52.40;;;;;;5111183;28;20508;-73
2021/06/02 11:56:13;;;;;;;1.63;1.50;;;28.60;51.40;;;;;;5108999;28;20458;-73
2021/06/02 11:58:40;;;;;;;1.50;1.40;;;28.70;49.60;;;;;;5112132;28;20765;-73
2021/06/02 12:01:07;;;;;;;1.60;1.37;;;28.60;48.40;;;;;;5091668;28;20507;-73
2021/06/02 12:03:36;;;;;;;1.47;1.47;;;28.60;50.20;;;;;;5111270;28;20485;-74
2021/06/02 12:06:04;;;;;;;1.80;1.40;;;28.60;50.70;;;;;;5108228;28;20483;-72
2021/06/02 12:08:30;;;;;;;1.33;1.20;;;28.80;49.30;;;;;;5111549;28;20938;-74
2021/06/02 12:10:58;;;;;;;1.67;1.37;;;28.90;49.10;;;;;;5108842;28;20509;-75
2021/06/02 12:13:27;;;;;;;1.30;1.20;;;29.00;49.50;;;;;;5108388;28;20456;-72
2021/06/02 12:15:55;;;;;;;1.53;1.30;;;29.20;50.80;;;;;;5088423;28;20524;-73
2021/06/02 12:18:35;;;;;;;1.47;1.20;;;29.20;49.90;;;;;;5090400;28;20832;-72
2021/06/02 12:21:13;;;;;;;1.40;1.30;;;29.20;47.60;;;;;;5088096;28;20969;-71
2021/06/02 12:23:54;;;;;;;1.27;1.17;;;29.10;51.70;;;;;;5090699;28;20484;-73
2021/06/02 12:26:23;;;;;;;1.73;1.20;;;29.10;48.20;;;;;;5070893;28;20460;-70
2021/06/02 12:28:51;;;;;;;1.63;1.30;;;29.20;45.70;;;;;;5090829;28;20508;-70
2021/06/02 12:31:36;;;;;;;2.07;1.40;;;29.30;47.50;;;;;;5088396;28;20513;-74
2021/06/02 12:34:10;;;;;;;1.27;1.20;;;29.50;48.00;;;;;;5090963;28;20480;-72
2021/06/02 12:36:41;;;;;;;1.43;1.23;;;29.60;48.30;;;;;;5086571;28;20508;-71
2021/06/02 12:39:09;;;;;;;1.37;1.20;;;29.80;46.60;;;;;;5090856;28;20483;-72
2021/06/02 12:41:36;;;;;;;1.47;1.20;;;29.90;44.20;;;;;;5087938;28;20452;-73
2021/06/02 12:44:05;;;;;;;1.50;1.40;;;29.80;45.90;;;;;;5090385;28;20520;-73
2021/06/02 12:46:32;;;;;;;1.40;1.30;;;29.70;46.80;;;;;;5087475;28;20460;-72
2021/06/02 12:49:01;;;;;;;1.57;1.20;;;29.60;50.00;;;;;;5091084;28;20962;-72
2021/06/02 12:51:28;;;;;;;1.30;1.17;;;29.70;47.30;;;;;;5088327;28;20455;-72
2021/06/02 12:53:55;;;;;;;1.47;1.30;;;29.70;46.80;;;;;;5090242;28;20459;-72
2021/06/02 12:56:22;;;;;;;1.50;1.30;;;29.80;47.80;;;;;;5086110;28;20508;-73
2021/06/02 12:58:53;;;;;;;1.47;1.30;;;29.90;47.80;;;;;;5088972;28;20480;-73
2021/06/02 13:01:22;;;;;;;1.33;1.30;;;30.20;47.40;;;;;;5088288;28;20487;-74
2021/06/02 13:03:50;;;;;;;2.30;1.43;;;30.20;45.80;;;;;;5089271;28;20569;-73
2021/06/02 13:06:18;;;;;;;1.50;1.30;;;30.40;47.40;;;;;;5087600;28;20483;-74
2021/06/02 13:08:46;;;;;;;2.80;1.30;;;30.70;45.50;;;;;;5090497;28;20462;-73
2021/06/02 13:11:16;;;;;;;1.90;1.30;;;30.70;43.40;;;;;;5087702;28;20495;-72
2021/06/02 13:13:47;;;;;;;1.40;1.20;;;30.40;44.00;;;;;;5090181;28;20464;-75
2021/06/02 13:16:14;;;;;;;1.73;1.30;;;30.30;44.50;;;;;;5068607;28;20468;-76
2021/06/02 13:18:42;;;;;;;1.70;1.23;;;30.40;44.90;;;;;;5068216;28;20929;-76
2021/06/02 13:21:20;;;;;;;1.77;1.43;;;30.50;45.60;;;;;;5067321;28;20460;-74
2021/06/02 13:23:51;;;;;;;1.30;1.20;;;30.70;44.90;;;;;;5071522;28;20510;-76
2021/06/02 13:26:28;;;;;;;1.23;1.20;;;30.80;46.30;;;;;;5071089;28;20544;-77
2021/06/02 13:28:55;;;;;;;1.30;1.20;;;30.90;43.90;;;;;;5073984;28;20456;-78
2021/06/02 13:31:23;;;;;;;1.33;1.30;;;30.70;46.90;;;;;;5070010;28;20540;-75
2021/06/02 13:33:50;;;;;;;1.20;1.10;;;30.90;47.30;;;;;;5073201;28;20818;-73